Time;durP1;ratioP1;P1;durP2;ratioP2;P2;SDS_P1;SDS_P2;PMS_P1;PMS_P2;Temp;Humidity;BMP_temperature;BMP_pressure;BME280_temperature;BME280_humidity;BME280_pressure;Samples;Min_cycle;Max_cycle;Signal;HPM_P1;HPM_P2
2023/04/17 00:01:31;;;;;;;;;;;;;;;;;;;;;
2023/04/17 00:05:49;;;;;;;5.43;4.40;;;6.70;1.00;;;;;;8263591;28;20236;-71
2023/04/17 00:10:19;;;;;;;6.03;4.50;;;6.50;99.90;;;;;;8243173;28;20190;-72
2023/04/17 00:14:39;;;;;;;5.40;4.47;;;6.50;1.00;;;;;;8211524;28;20194;-71
2023/04/17 00:19:21;;;;;;;5.83;4.60;;;6.40;99.90;;;;;;8262925;28;20199;-71
2023/04/17 00:23:52;;;;;;;5.40;4.47;;;6.30;99.90;;;;;;8214287;28;20269;-70
2023/04/17 00:28:05;;;;;;;5.63;4.53;;;6.30;1.00;;;;;;8263437;28;20303;-71
2023/04/17 00:32:39;;;;;;;6.13;4.53;;;6.30;18.70;;;;;;8238550;28;20186;-70
2023/04/17 00:36:42;;;;;;;6.00;4.40;;;6.20;77.90;;;;;;8254229;28;20294;-72
2023/04/17 00:40:45;;;;;;;5.63;4.47;;;6.10;99.90;;;;;;8248241;28;20188;-71
2023/04/17 00:44:55;;;;;;;7.20;4.73;;;6.10;99.90;;;;;;8240364;28;20218;-71
2023/04/17 00:49:03;;;;;;;7.00;4.83;;;6.10;99.90;;;;;;8235442;28;20192;-70
2023/04/17 00:53:14;;;;;;;6.23;4.77;;;6.00;99.90;;;;;;8244161;28;20198;-72
2023/04/17 00:57:27;;;;;;;5.70;4.67;;;6.10;99.90;;;;;;8244183;28;20211;-71
2023/04/17 01:01:44;;;;;;;6.43;4.70;;;6.10;99.90;;;;;;8261174;28;20259;-71
2023/04/17 01:06:04;;;;;;;5.07;4.30;;;6.20;99.90;;;;;;8246023;28;20219;-72
2023/04/17 01:15:19;;;;;;;6.40;4.93;;;6.20;99.90;;;;;;8134387;29;20190;-71
2023/04/17 01:19:33;;;;;;;6.27;4.33;;;6.30;99.90;;;;;;8214891;28;20199;-71
2023/04/17 01:23:59;;;;;;;6.53;5.03;;;6.30;99.90;;;;;;8245237;28;20190;-71
2023/04/17 01:28:42;;;;;;;6.80;4.93;;;6.30;99.90;;;;;;8258790;28;20188;-71
2023/04/17 01:32:43;;;;;;;7.20;5.33;;;6.40;99.90;;;;;;8236472;28;20214;-72
2023/04/17 01:37:37;;;;;;;5.87;4.80;;;6.40;99.90;;;;;;8247251;28;20198;-70
2023/04/17 01:41:59;;;;;;;5.13;4.63;;;6.50;99.90;;;;;;8246474;28;20194;-72
2023/04/17 01:46:37;;;;;;;;;;;;;;;;;;;;;
2023/04/17 01:51:07;;;;;;;6.50;5.10;;;6.50;99.90;;;;;;8260336;28;20203;-70
2023/04/17 01:55:31;;;;;;;7.00;5.20;;;6.50;99.90;;;;;;8240944;28;20215;-71
2023/04/17 02:00:17;;;;;;;11.03;6.23;;;6.60;99.90;;;;;;8238200;28;20195;-70
2023/04/17 02:04:24;;;;;;;10.73;7.43;;;6.60;99.90;;;;;;8232558;28;20223;-71
2023/04/17 02:08:42;;;;;;;11.60;8.30;;;6.60;99.90;;;;;;8240074;28;20183;-70
2023/04/17 02:13:10;;;;;;;14.67;10.03;;;6.60;99.90;;;;;;8230627;28;20292;-70
2023/04/17 02:17:46;;;;;;;10.20;8.07;;;6.60;99.90;;;;;;8219738;28;20320;-70
2023/04/17 02:22:12;;;;;;;14.10;9.47;;;6.60;99.90;;;;;;8193466;28;20308;-71
2023/04/17 02:26:31;;;;;;;10.33;7.63;;;6.60;99.90;;;;;;8237020;28;20214;-71
2023/04/17 02:30:36;;;;;;;8.63;6.20;;;6.60;99.90;;;;;;8243686;28;20218;-71
2023/04/17 02:34:44;;;;;;;9.17;6.40;;;6.60;99.90;;;;;;8245599;28;20221;-71
2023/04/17 02:39:11;;;;;;;13.30;8.50;;;6.60;99.90;;;;;;8244214;28;20194;-72
2023/04/17 02:43:36;;;;;;;13.67;9.60;;;6.60;99.90;;;;;;8228489;28;20294;-70
2023/04/17 02:47:47;;;;;;;13.47;10.40;;;6.70;99.90;;;;;;8236193;28;20187;-71
2023/04/17 02:56:38;;;;;;;9.13;7.93;;;6.80;99.90;;;;;;8243871;28;20237;-70
2023/04/17 03:01:06;;;;;;;8.73;7.80;;;6.90;99.90;;;;;;8256500;28;20268;-71
2023/04/17 03:05:19;;;;;;;11.10;7.60;;;6.90;99.90;;;;;;8213420;28;20255;-71
2023/04/17 03:18:53;;;;;;;9.90;7.57;;;6.70;99.90;;;;;;8207312;28;20326;-71
2023/04/17 03:23:27;;;;;;;8.53;7.30;;;6.70;99.90;;;;;;8194605;28;20250;-71
2023/04/17 03:27:40;;;;;;;12.53;9.27;;;6.80;99.90;;;;;;8197478;28;20218;-71
2023/04/17 03:31:45;;;;;;;19.83;14.27;;;6.80;99.90;;;;;;8210281;28;20192;-70
2023/04/17 03:35:58;;;;;;;19.77;15.17;;;6.90;99.90;;;;;;8229828;28;20196;-71
2023/04/17 03:40:10;;;;;;;18.57;13.87;;;7.00;99.90;;;;;;8236713;28;20199;-70
2023/04/17 03:49:40;;;;;;;11.57;8.63;;;7.10;99.90;;;;;;8120871;28;20186;-70
2023/04/17 03:54:15;;;;;;;11.87;9.13;;;7.10;99.90;;;;;;8243469;28;20230;-70
2023/04/17 03:58:36;;;;;;;10.53;8.67;;;7.20;99.90;;;;;;8237232;28;20208;-71
2023/04/17 04:02:56;;;;;;;13.07;10.20;;;7.20;99.90;;;;;;8243962;28;20211;-71
2023/04/17 04:07:12;;;;;;;15.43;11.23;;;7.20;99.90;;;;;;8250100;28;20219;-71
2023/04/17 04:11:13;;;;;;;43.67;26.20;;;7.30;99.90;;;;;;8265308;28;20222;-71
2023/04/17 04:16:02;;;;;;;28.87;18.20;;;7.40;99.90;;;;;;8243522;28;20190;-72
2023/04/17 04:20:39;;;;;;;33.17;20.87;;;7.40;99.90;;;;;;8206143;28;20265;-71
2023/04/17 04:25:00;;;;;;;39.23;24.10;;;7.40;99.90;;;;;;8219992;28;20215;-70
2023/04/17 04:29:20;;;;;;;;;;;;;;;;;;;;;
2023/04/17 04:33:30;;;;;;;25.63;15.90;;;7.40;99.90;;;;;;8256211;28;20295;-70
2023/04/17 04:37:45;;;;;;;20.57;13.67;;;7.50;99.90;;;;;;8244420;28;20187;-69
2023/04/17 04:42:04;;;;;;;16.37;11.47;;;7.50;99.90;;;;;;8242041;28;20244;-69
2023/04/17 04:46:46;;;;;;;14.90;10.03;;;7.50;99.90;;;;;;8228041;28;20211;-70
2023/04/17 04:51:14;;;;;;;11.27;9.13;;;7.60;99.90;;;;;;8231113;28;20196;-70
2023/04/17 04:56:02;;;;;;;12.87;9.57;;;7.70;99.90;;;;;;8239829;28;20195;-69
2023/04/17 05:00:08;;;;;;;12.90;9.50;;;7.70;99.90;;;;;;8225226;28;20397;-68
2023/04/17 05:04:31;;;;;;;12.83;9.47;;;7.80;99.90;;;;;;8234635;28;20207;-70
2023/04/17 05:08:44;;;;;;;13.97;9.90;;;7.80;99.90;;;;;;8194162;28;20188;-70
2023/04/17 05:13:04;;;;;;;17.90;11.93;;;7.80;99.90;;;;;;8179728;28;20220;-69
2023/04/17 05:17:14;;;;;;;15.20;10.73;;;7.90;99.90;;;;;;8184868;28;20228;-67
2023/04/17 05:21:21;;;;;;;16.10;11.07;;;7.90;99.90;;;;;;8182333;28;20276;-68
2023/04/17 05:25:34;;;;;;;15.60;10.33;;;7.90;99.90;;;;;;8174136;28;20217;-69
2023/04/17 05:34:29;;;;;;;14.63;9.23;;;8.00;99.90;;;;;;8128942;29;20198;-69
2023/04/17 05:43:21;;;;;;;13.10;9.00;;;8.10;99.90;;;;;;8246276;28;20321;-68
2023/04/17 05:47:23;;;;;;;17.57;12.17;;;8.10;99.90;;;;;;8236262;28;20206;-70
2023/04/17 05:57:03;;;;;;;27.50;16.83;;;8.20;99.90;;;;;;8148185;28;20268;-69
2023/04/17 06:01:05;;;;;;;30.20;17.67;;;8.30;99.90;;;;;;8204578;28;20204;-69
2023/04/17 06:10:30;;;;;;;37.07;27.17;;;8.50;99.90;;;;;;8239855;28;20299;-69
2023/04/17 06:20:10;;;;;;;41.03;19.40;;;8.70;99.90;;;;;;8174482;28;20225;-69
2023/04/17 06:29:02;;;;;;;51.13;24.77;;;9.00;99.90;;;;;;8233065;28;20195;-68
2023/04/17 06:42:34;;;;;;;31.07;21.20;;;9.40;99.90;;;;;;8206556;28;20225;-70
2023/04/17 06:47:03;;;;;;;30.33;22.13;;;9.60;99.90;;;;;;8238545;28;20222;-71
2023/04/17 06:51:16;;;;;;;30.53;22.00;;;9.90;99.90;;;;;;8205525;28;20236;-69
2023/04/17 07:00:44;;;;;;;;;;;;;;;;;;;;;
2023/04/17 07:05:26;;;;;;;;;;;;;;;;;;;;;
2023/04/17 07:09:59;;;;;;;31.40;22.20;;;10.40;99.90;;;;;;8222530;28;20279;-73
2023/04/17 07:14:12;;;;;;;41.63;28.00;;;10.60;99.90;;;;;;8163599;28;20320;-70
2023/04/17 07:23:19;;;;;;;26.43;19.27;;;10.90;99.90;;;;;;8276887;28;20205;-72
2023/04/17 07:27:37;;;;;;;24.93;18.97;;;11.10;29.60;;;;;;8268564;28;20214;-71
2023/04/17 07:31:55;;;;;;;25.73;18.87;;;11.30;1.00;;;;;;8262537;28;20202;-72
2023/04/17 07:36:13;;;;;;;23.53;18.03;;;11.50;99.90;;;;;;8258720;28;20194;-72
2023/04/17 07:40:43;;;;;;;26.97;18.93;;;11.80;99.90;;;;;;8280210;28;20284;-71
2023/04/17 07:45:09;;;;;;;;;;;;;;;;;;;;;
2023/04/17 07:49:55;;;;;;;;;;;;;;;;;;;;;
2023/04/17 07:53:59;;;;;;;33.80;23.70;;;12.20;99.90;;;;;;8206691;28;20193;-71
2023/04/17 07:58:24;;;;;;;30.67;22.27;;;12.50;3.90;;;;;;8205080;28;20254;-72
2023/04/17 08:02:55;;;;;;;27.33;20.23;;;12.50;1.00;;;;;;8172740;28;20284;-73
2023/04/17 08:07:28;;;;;;;30.90;22.63;;;12.40;1.00;;;;;;8200595;28;20216;-73
2023/04/17 08:11:47;;;;;;;32.33;22.07;;;12.70;1.00;;;;;;8148664;28;20232;-73
2023/04/17 08:16:29;;;;;;;26.13;18.90;;;12.90;1.00;;;;;;8235569;28;20206;-74
2023/04/17 08:21:03;;;;;;;28.53;21.20;;;12.90;1.00;;;;;;8202383;28;20200;-74
2023/04/17 08:25:48;;;;;;;32.20;22.93;;;12.60;1.00;;;;;;8242348;28;20229;-73
2023/04/17 08:34:36;;;;;;;33.60;23.70;;;12.20;1.00;;;;;;8261323;28;20218;-73
2023/04/17 08:58:20;;;;;;;40.77;29.00;;;12.80;1.00;;;;;;8256756;23;20238;-73
2023/04/17 09:02:54;;;;;;;35.13;24.10;;;13.50;99.90;;;;;;8280199;28;20301;-73
2023/04/17 09:07:17;;;;;;;37.63;24.30;;;13.80;99.90;;;;;;8276247;28;20222;-72
2023/04/17 09:12:06;;;;;;;35.43;24.43;;;14.10;99.90;;;;;;8265578;28;20256;-74
2023/04/17 09:21:05;;;;;;;34.03;25.13;;;14.50;99.90;;;;;;8280307;28;20183;-68
2023/04/17 09:25:47;;;;;;;35.97;25.87;;;14.50;99.90;;;;;;8285737;28;20214;-74
2023/04/17 09:30:34;;;;;;;37.67;25.57;;;14.60;99.90;;;;;;8202175;28;20198;-75
2023/04/17 09:35:24;;;;;;;40.53;27.30;;;14.80;99.90;;;;;;8263041;28;20194;-74
2023/04/17 09:40:41;;;;;;;;;;;;;;;;;;;;;
2023/04/17 09:44:59;;;;;;;36.50;27.10;;;15.10;99.90;;;;;;8143960;29;20287;-73
2023/04/17 09:49:28;;;;;;;41.00;29.70;;;15.20;99.90;;;;;;8129930;29;20233;-73
2023/04/17 09:53:56;;;;;;;43.83;29.67;;;15.00;99.90;;;;;;8220920;28;20195;-73
2023/04/17 09:58:33;;;;;;;35.73;25.90;;;14.40;99.90;;;;;;8200364;28;20215;-73
2023/04/17 10:02:38;;;;;;;38.90;25.90;;;14.10;99.90;;;;;;8209905;28;20204;-73
2023/04/17 10:17:09;;;;;;;;;;;;;;;;;;;;;
2023/04/17 10:21:34;;;;;;;;;;;;;;;;;;;;;
2023/04/17 10:35:22;;;;;;;30.23;20.70;;;13.50;99.90;;;;;;8226447;28;20200;-69
2023/04/17 10:39:45;;;;;;;23.93;17.77;;;13.30;99.90;;;;;;8248087;28;20192;-70
2023/04/17 10:44:04;;;;;;;21.67;16.70;;;13.40;99.90;;;;;;8255857;28;20191;-70
2023/04/17 10:48:25;;;;;;;19.67;14.97;;;13.20;99.90;;;;;;8249206;28;20215;-69
2023/04/17 10:52:33;;;;;;;20.33;15.83;;;13.20;99.90;;;;;;8246736;28;20200;-70
2023/04/17 10:56:56;;;;;;;20.70;17.07;;;13.00;99.90;;;;;;8241637;28;20205;-69
2023/04/17 11:01:30;;;;;;;;;;;;;;;;;;;;;
2023/04/17 11:06:02;;;;;;;27.17;20.53;;;12.80;99.90;;;;;;8237314;28;20281;-68
2023/04/17 11:10:31;;;;;;;29.63;21.73;;;12.30;1.00;;;;;;8227025;28;20184;-69
2023/04/17 11:14:38;;;;;;;31.17;23.13;;;12.70;1.00;;;;;;8242148;28;20199;-69
2023/04/17 11:18:59;;;;;;;26.33;20.50;;;13.40;1.00;;;;;;8249270;28;20255;-69
2023/04/17 11:23:18;;;;;;;30.00;23.27;;;14.00;99.90;;;;;;8256323;28;20196;-66
2023/04/17 11:27:28;;;;;;;32.03;23.37;;;13.90;99.90;;;;;;8230183;28;20203;-68
2023/04/17 11:36:19;;;;;;;28.60;23.10;;;14.40;99.90;;;;;;8246061;28;20199;-69
2023/04/17 11:41:19;;;;;;;25.23;19.83;;;14.60;99.90;;;;;;8240838;28;20187;-69
2023/04/17 11:45:45;;;;;;;27.00;20.97;;;15.20;99.90;;;;;;8243425;28;20220;-70
2023/04/17 11:49:59;;;;;;;26.73;20.00;;;16.30;99.90;;;;;;8256817;28;20175;-72
2023/04/17 11:55:05;;;;;;;;;;;;;;;;;;;;;
2023/04/17 12:03:53;;;;;;;;;;;;;;;;;;;;;
2023/04/17 12:08:31;;;;;;;30.50;22.10;;;14.80;99.90;;;;;;8259061;28;20253;-70
2023/04/17 12:12:36;;;;;;;25.50;21.50;;;13.90;99.90;;;;;;8262783;28;20202;-69
2023/04/17 12:17:30;;;;;;;27.90;23.13;;;13.60;99.90;;;;;;8254662;28;20191;-70
2023/04/17 12:21:33;;;;;;;26.43;21.60;;;13.00;99.90;;;;;;8269903;28;20263;-69
2023/04/17 12:25:52;;;;;;;30.73;23.33;;;12.80;1.00;;;;;;8250372;28;20207;-69
2023/04/17 12:30:46;;;;;;;28.93;23.03;;;12.60;1.00;;;;;;8249227;28;20186;-69
2023/04/17 12:34:30;;;;;;;30.83;23.83;;;12.80;1.00;;;;;;8259876;28;20198;-70
2023/04/17 12:38:35;;;;;;;27.33;21.80;;;12.90;1.00;;;;;;8258096;28;20202;-70
2023/04/17 12:42:47;;;;;;;28.60;22.10;;;12.80;1.00;;;;;;8258904;28;20187;-73
2023/04/17 12:46:57;;;;;;;27.00;21.67;;;12.40;1.00;;;;;;8260867;28;20207;-73
2023/04/17 12:51:26;;;;;;;26.80;21.37;;;12.30;88.70;;;;;;8245939;28;20511;-72
2023/04/17 12:56:07;;;;;;;27.87;21.07;;;12.50;71.50;;;;;;8239253;28;20203;-73
2023/04/17 13:00:18;;;;;;;25.07;20.90;;;12.80;1.00;;;;;;8234715;28;20247;-70
2023/04/17 13:04:35;;;;;;;23.97;18.90;;;13.10;8.90;;;;;;8217180;28;20192;-68
2023/04/17 13:08:39;;;;;;;22.03;17.30;;;13.30;99.90;;;;;;8238080;28;20196;-72
2023/04/17 13:12:48;;;;;;;25.17;20.53;;;13.50;99.90;;;;;;8237020;28;20203;-72
2023/04/17 13:17:19;;;;;;;23.53;18.93;;;13.30;99.90;;;;;;8220175;28;20210;-73
2023/04/17 13:21:50;;;;;;;22.57;19.33;;;13.00;99.90;;;;;;8192276;28;20203;-69
2023/04/17 13:32:17;;;;;;;39.27;27.93;;;13.00;99.90;;;;;;8078334;29;20196;-70
2023/04/17 13:41:48;;;;;;;21.50;17.60;;;13.70;99.90;;;;;;7989304;29;20249;-73
2023/04/17 13:51:58;;;;;;;21.47;17.23;;;13.40;99.90;;;;;;7924447;29;20255;-73
2023/04/17 14:30:06;;;;;;;18.60;14.87;;;14.90;76.30;;;;;;8329469;28;20222;-75
2023/04/17 14:34:19;;;;;;;18.30;15.40;;;14.60;98.80;;;;;;8327701;28;20186;-73
2023/04/17 14:38:47;;;;;;;18.63;15.13;;;14.30;99.90;;;;;;8330982;28;20182;-73
2023/04/17 14:43:12;;;;;;;20.40;17.07;;;14.30;80.90;;;;;;8310828;28;20182;-73
2023/04/17 14:47:23;;;;;;;27.30;20.57;;;14.30;88.20;;;;;;8332532;28;20206;-73
2023/04/17 14:51:28;;;;;;;20.73;16.03;;;14.60;66.60;;;;;;8315641;28;20209;-73
2023/04/17 14:55:50;;;;;;;21.10;17.57;;;14.70;83.90;;;;;;8313236;28;20198;-74
2023/04/17 14:59:54;;;;;;;19.10;16.20;;;14.80;90.90;;;;;;8330376;28;20178;-74
2023/04/17 15:03:55;;;;;;;28.97;20.90;;;14.80;94.70;;;;;;8308909;28;20260;-71
2023/04/17 15:08:05;;;;;;;19.80;16.17;;;14.90;89.90;;;;;;8310237;28;20210;-71
2023/04/17 15:12:12;;;;;;;30.60;22.10;;;14.70;83.30;;;;;;8310501;28;20205;-72
2023/04/17 15:16:16;;;;;;;38.87;25.87;;;14.40;85.70;;;;;;8322839;28;20186;-71
2023/04/17 15:20:31;;;;;;;47.97;31.07;;;14.10;99.90;;;;;;8331982;28;20177;-72
2023/04/17 15:24:48;;;;;;;;;;;;;;;;;;;;;
2023/04/17 15:33:23;;;;;;;64.10;39.67;;;13.80;99.90;;;;;;8292650;28;20238;-71
2023/04/17 15:37:28;;;;;;;37.17;26.83;;;14.00;99.90;;;;;;8312629;28;20197;-70
2023/04/17 15:41:42;;;;;;;24.63;19.50;;;14.00;99.90;;;;;;8327072;28;20201;-73
2023/04/17 15:46:30;;;;;;;86.23;54.60;;;13.60;99.90;;;;;;8333652;28;20238;-71
2023/04/17 15:50:44;;;;;;;37.40;26.30;;;13.30;99.90;;;;;;8135219;29;20284;-71
2023/04/17 15:55:17;;;;;;;45.50;28.97;;;13.20;99.90;;;;;;8207981;28;20200;-70
2023/04/17 16:03:43;;;;;;;41.43;26.57;;;12.90;99.90;;;;;;8224982;28;20204;-71
2023/04/17 16:07:56;;;;;;;38.97;20.43;;;13.00;99.90;;;;;;8214123;28;20211;-70
2023/04/17 16:12:01;;;;;;;20.07;16.07;;;13.00;99.90;;;;;;8211688;28;20227;-71
2023/04/17 16:16:03;;;;;;;17.57;14.83;;;13.10;99.90;;;;;;8226703;28;20223;-71
2023/04/17 16:20:05;;;;;;;22.40;16.37;;;13.20;99.90;;;;;;8258770;28;20205;-70
2023/04/17 16:24:24;;;;;;;23.83;17.43;;;13.20;99.90;;;;;;8331939;28;20177;-70
2023/04/17 16:28:38;;;;;;;23.33;17.80;;;13.20;99.90;;;;;;8307952;28;20202;-71
2023/04/17 16:32:44;;;;;;;26.33;21.13;;;13.00;99.90;;;;;;8315718;28;20186;-68
2023/04/17 16:37:02;;;;;;;30.63;23.50;;;12.80;99.90;;;;;;8309110;28;20182;-71
2023/04/17 16:41:10;;;;;;;52.53;30.53;;;12.80;99.90;;;;;;8314055;28;20193;-73
2023/04/17 16:45:14;;;;;;;26.90;17.97;;;12.90;99.90;;;;;;8309014;28;20267;-72
2023/04/17 16:49:15;;;;;;;20.27;16.00;;;12.70;99.90;;;;;;8309150;28;20189;-71
2023/04/17 16:53:28;;;;;;;22.00;17.00;;;12.60;99.90;;;;;;8313243;28;20182;-72
2023/04/17 16:57:29;;;;;;;23.97;17.67;;;12.40;99.90;;;;;;8309589;28;20292;-71
2023/04/17 17:01:37;;;;;;;40.23;30.90;;;12.30;99.90;;;;;;8310219;28;20193;-70
2023/04/17 17:05:48;;;;;;;49.87;30.77;;;12.20;1.00;;;;;;8333044;28;20261;-72
2023/04/17 17:09:49;;;;;;;54.27;29.57;;;12.20;1.00;;;;;;8312477;28;20280;-71
2023/04/17 17:14:15;;;;;;;40.00;25.97;;;12.00;1.00;;;;;;8311997;28;20197;-71
2023/04/17 17:22:48;;;;;;;31.43;22.13;;;11.60;1.00;;;;;;8266051;28;20201;-71
2023/04/17 17:27:28;;;;;;;46.40;26.43;;;11.50;1.00;;;;;;8317708;28;20304;-72
2023/04/17 17:31:31;;;;;;;35.83;23.77;;;11.30;36.70;;;;;;8315485;28;20243;-66
2023/04/17 17:35:52;;;;;;;35.57;24.53;;;11.10;99.90;;;;;;8313326;28;20181;-65
2023/04/17 17:40:06;;;;;;;25.80;20.70;;;10.90;99.90;;;;;;8331683;28;20189;-71
2023/04/17 17:44:20;;;;;;;;;;;;;;;;;;;;;
2023/04/17 17:48:38;;;;;;;23.07;18.23;;;10.50;99.90;;;;;;8334651;28;20216;-72
2023/04/17 17:52:45;;;;;;;23.47;19.10;;;10.30;1.00;;;;;;8320074;28;20198;-71
2023/04/17 17:57:30;;;;;;;36.50;27.13;;;10.20;1.00;;;;;;8364656;22;20236;-72
2023/04/17 18:01:54;;;;;;;26.83;20.73;;;10.00;54.40;;;;;;8330960;28;20210;-72
2023/04/17 18:06:29;;;;;;;23.07;18.43;;;9.80;99.90;;;;;;8344858;28;20220;-73
2023/04/17 18:10:44;;;;;;;24.20;19.00;;;9.70;99.90;;;;;;8297733;28;20206;-73
2023/04/17 18:15:05;;;;;;;19.20;16.00;;;9.60;99.90;;;;;;8294706;28;20200;-72
2023/04/17 18:24:22;;;;;;;21.83;17.30;;;9.30;97.70;;;;;;8272665;28;20473;-72
2023/04/17 18:28:53;;;;;;;23.33;18.07;;;9.10;99.90;;;;;;8268971;28;20285;-71
2023/04/17 18:33:17;;;;;;;23.47;18.93;;;9.00;1.00;;;;;;8286442;28;20190;-72
2023/04/17 18:38:16;;;;;;;26.97;20.40;;;8.90;99.90;;;;;;8285062;28;20289;-70
2023/04/17 18:42:51;;;;;;;25.67;19.50;;;8.80;99.90;;;;;;8358182;28;20277;-71
2023/04/17 18:46:55;;;;;;;23.80;18.43;;;8.60;99.90;;;;;;8340003;28;20221;-70
2023/04/17 18:51:13;;;;;;;24.07;18.13;;;8.50;99.90;;;;;;8351401;28;20333;-72
2023/04/17 18:55:33;;;;;;;31.37;20.60;;;8.50;99.90;;;;;;8365818;28;20236;-72
2023/04/17 18:59:52;;;;;;;23.53;18.17;;;8.50;99.90;;;;;;8268699;28;20368;-71
2023/04/17 19:04:29;;;;;;;23.80;18.00;;;8.40;99.90;;;;;;8208933;28;20201;-71
2023/04/17 19:13:43;;;;;;;21.43;17.80;;;8.30;99.90;;;;;;8206362;28;20189;-67
2023/04/17 19:18:08;;;;;;;21.93;16.43;;;8.30;99.90;;;;;;8197170;28;20258;-68
2023/04/17 19:22:13;;;;;;;21.90;16.73;;;8.30;99.90;;;;;;8228793;28;20191;-65
2023/04/17 19:26:32;;;;;;;21.33;16.97;;;8.30;99.90;;;;;;8258278;28;20234;-66
2023/04/17 19:30:55;;;;;;;25.30;18.33;;;8.30;99.90;;;;;;8256732;28;20199;-66
2023/04/17 19:35:20;;;;;;;22.33;16.60;;;8.20;1.00;;;;;;8290281;28;20191;-67
2023/04/17 19:39:41;;;;;;;43.87;24.97;;;8.20;99.90;;;;;;8290808;28;20199;-69
2023/04/17 19:44:02;;;;;;;51.53;30.27;;;8.20;99.90;;;;;;8274622;28;20194;-67
2023/04/17 19:48:17;;;;;;;52.70;32.17;;;8.30;15.60;;;;;;8301327;28;20225;-67
2023/04/17 19:52:59;;;;;;;31.93;20.60;;;8.30;99.90;;;;;;8287279;28;20191;-68
2023/04/17 19:57:37;;;;;;;;;;;;;;;;;;;;;
2023/04/17 20:01:57;;;;;;;51.20;31.30;;;8.40;99.90;;;;;;8302924;28;20199;-68
2023/04/17 20:06:21;;;;;;;24.93;16.80;;;8.40;1.00;;;;;;8311320;28;20233;-67
2023/04/17 20:10:48;;;;;;;30.03;21.70;;;8.30;1.00;;;;;;8323764;28;20268;-67
2023/04/17 20:14:57;;;;;;;51.40;33.10;;;8.30;1.00;;;;;;8323590;28;20288;-67
2023/04/17 20:19:23;;;;;;;36.70;24.00;;;8.30;99.90;;;;;;8320947;28;20197;-66
2023/04/17 20:23:24;;;;;;;30.83;21.70;;;8.30;99.90;;;;;;8324580;28;20189;-66
2023/04/17 20:27:32;;;;;;;52.70;32.93;;;8.30;99.90;;;;;;8325655;28;20223;-67
2023/04/17 20:31:39;;;;;;;18.83;13.73;;;8.30;99.90;;;;;;8325074;28;20181;-69
2023/04/17 20:35:53;;;;;;;;;;;;;;;;;;;;;
2023/04/17 20:39:58;;;;;;;42.67;29.97;;;8.30;99.90;;;;;;8339568;28;20189;-66
2023/04/17 20:44:11;;;;;;;33.73;22.43;;;8.30;99.90;;;;;;8320242;28;20202;-66
2023/04/17 20:54:00;;;;;;;25.30;19.20;;;8.30;99.90;;;;;;8337278;28;20187;-68
2023/04/17 20:58:21;;;;;;;33.23;21.00;;;8.30;85.00;;;;;;8320695;28;20249;-70
2023/04/17 21:02:32;;;;;;;32.13;22.07;;;8.30;1.00;;;;;;8314375;28;20190;-71
2023/04/17 21:06:36;;;;;;;29.97;19.90;;;8.30;1.00;;;;;;8321257;28;20221;-73
2023/04/17 21:11:16;;;;;;;36.23;22.80;;;8.20;35.60;;;;;;8336905;28;20252;-72
2023/04/17 21:15:38;;;;;;;74.00;35.87;;;8.10;99.90;;;;;;8190980;28;20279;-71
2023/04/17 21:20:10;;;;;;;67.07;33.87;;;8.10;99.90;;;;;;8338010;28;20201;-72
2023/04/17 21:28:57;;;;;;;60.60;33.20;;;7.90;99.90;;;;;;8206492;28;20284;-71
2023/04/17 21:33:33;;;;;;;77.50;38.30;;;7.80;1.00;;;;;;8189203;28;20227;-72
2023/04/17 21:37:36;;;;;;;32.17;19.37;;;7.80;57.60;;;;;;8208187;28;20211;-73
2023/04/17 21:41:53;;;;;;;62.70;34.63;;;7.70;1.00;;;;;;8202206;28;20197;-72
2023/04/17 21:46:01;;;;;;;47.23;27.67;;;7.60;99.90;;;;;;8196090;28;20368;-72
2023/04/17 21:50:40;;;;;;;32.83;21.23;;;7.50;1.00;;;;;;8190312;28;20192;-72
2023/04/17 21:55:01;;;;;;;80.50;41.73;;;7.50;99.90;;;;;;8224786;28;20212;-72
2023/04/17 21:59:33;;;;;;;49.63;30.07;;;7.40;1.00;;;;;;8286166;28;20289;-72
2023/04/17 22:03:46;;;;;;;54.93;30.87;;;7.40;99.90;;;;;;8202096;28;20235;-72
2023/04/17 22:07:50;;;;;;;28.87;18.63;;;7.40;99.90;;;;;;8202110;28;20216;-72
2023/04/17 22:12:00;;;;;;;67.63;35.00;;;7.40;1.00;;;;;;8198262;28;20202;-72
2023/04/17 22:16:30;;;;;;;60.90;32.17;;;7.50;99.90;;;;;;8286493;28;20202;-72
2023/04/17 22:21:13;;;;;;;47.27;27.97;;;7.50;29.30;;;;;;8272037;28;20195;-71
2023/04/17 22:25:25;;;;;;;48.50;28.87;;;7.60;1.00;;;;;;8150027;28;20209;-72
2023/04/17 22:35:20;;;;;;;30.20;20.57;;;7.70;99.90;;;;;;8277748;28;20293;-73
2023/04/17 22:39:49;;;;;;;32.20;21.67;;;7.80;1.00;;;;;;8191071;28;20220;-72
2023/04/17 22:43:59;;;;;;;29.67;20.67;;;7.80;99.90;;;;;;8217127;28;20226;-72
2023/04/17 22:48:40;;;;;;;32.03;21.30;;;7.80;99.90;;;;;;8219878;28;20227;-73
2023/04/17 22:57:38;;;;;;;;;;;;;;;;;;;;;
2023/04/17 23:01:55;;;;;;;33.50;20.33;;;7.70;99.90;;;;;;8232619;28;20214;-72
2023/04/17 23:06:49;;;;;;;38.27;22.93;;;7.80;99.90;;;;;;8228243;28;20219;-72
2023/04/17 23:11:08;;;;;;;98.97;47.37;;;7.80;99.90;;;;;;8193565;28;20312;-66
2023/04/17 23:15:41;;;;;;;33.13;20.07;;;7.90;1.00;;;;;;8208588;28;20235;-68
2023/04/17 23:20:20;;;;;;;40.13;23.37;;;7.90;1.00;;;;;;8221990;28;20193;-67
2023/04/17 23:39:17;;;;;;;36.40;23.73;;;7.80;1.00;;;;;;8173032;28;20274;-67
2023/04/17 23:43:41;;;;;;;27.57;18.10;;;7.80;1.00;;;;;;8069543;29;20252;-69
2023/04/17 23:48:20;;;;;;;25.63;17.60;;;7.80;1.00;;;;;;8153624;28;20358;-67
2023/04/17 23:58:02;;;;;;;38.57;23.17;;;7.80;1.00;;;;;;8116923;28;20212;-71
